Wednesday, September 20, 2017, 9:31 PM EDT

KPTB, Petersburg, Dinwiddie County Airport

Location: Petersburg, VA, United States Lat: 37.183
Local Time: 9:31 PM EDT ( 1:31 GMT) Lon: -77.517
Time Zone: US/Eastern Elev: 193 ft

Show me the last for .
Show Decoded

2017-09-20 21:15 METAR KPTB 210115Z AUTO 00000KT 7SM CLR 19/19 A2998 RMK AO2 T01900190 =
2017-09-20 20:55 METAR KPTB 210055Z AUTO 00000KT 7SM CLR 19/19 A2997 RMK AO2 T01920192 =
2017-09-20 20:35 METAR KPTB 210035Z AUTO 00000KT 10SM CLR 20/20 A2997 RMK AO2 T01990199 =
2017-09-20 20:15 METAR KPTB 210015Z AUTO 00000KT 10SM CLR 20/20 A2997 RMK AO2 T02020202 =
2017-09-20 19:55 METAR KPTB 202355Z AUTO 00000KT 10SM CLR 21/21 A2996 RMK AO2 T02060206 10302
                 20206 =
2017-09-20 19:35 METAR KPTB 202335Z AUTO 00000KT 10SM CLR 22/22 A2996 RMK AO2 T02150215 =
2017-09-20 19:15 METAR KPTB 202315Z AUTO 00000KT 10SM CLR 22/22 A2995 RMK AO2 T02240215 =
2017-09-20 18:55 METAR KPTB 202255Z AUTO 00000KT 10SM CLR 24/21 A2995 RMK AO2 T02410210 =
2017-09-20 18:35 METAR KPTB 202235Z AUTO 00000KT 10SM CLR 28/19 A2995 RMK AO2 T02790193 =
2017-09-20 18:15 METAR KPTB 202215Z AUTO 35003KT 10SM CLR 29/17 A2994 RMK AO2 T02880165 =
2017-09-20 17:55 METAR KPTB 202155Z AUTO 34003KT 7SM CLR 29/16 A2994 RMK AO2 T02930164 =
2017-09-20 17:35 METAR KPTB 202135Z AUTO 00000KT 7SM CLR 29/16 A2994 RMK AO2 T02940162 =
2017-09-20 17:15 METAR KPTB 202115Z AUTO 29003KT 10SM CLR 30/16 A2994 RMK AO2 T02980164 =
2017-09-20 16:55 METAR KPTB 202055Z AUTO 00000KT 10SM CLR 30/15 A2994 RMK AO2 T02960154 =
2017-09-20 16:35 METAR KPTB 202035Z AUTO 28003KT 10SM CLR 30/16 A2994 RMK AO2 T02990157 =
2017-09-20 16:15 METAR KPTB 202015Z AUTO 28005KT 10SM CLR 30/16 A2994 RMK AO2 T02990156 =
2017-09-20 15:55 METAR KPTB 201955Z AUTO 28003KT 10SM CLR 30/16 A2994 RMK AO2 T03010158 =
2017-09-20 15:35 METAR KPTB 201935Z AUTO 34004KT 7SM CLR 30/16 A2994 RMK AO2 T02980156 =
2017-09-20 15:15 METAR KPTB 201915Z AUTO 30004KT 10SM CLR 30/17 A2995 RMK AO2 T02980168 =
2017-09-20 14:55 METAR KPTB 201855Z AUTO 27005KT 10SM CLR 30/17 A2995 RMK AO2 T02980170 =
2017-09-20 14:35 METAR KPTB 201835Z AUTO 31005KT 10SM CLR 30/17 A2996 RMK AO2 T02970168 =
2017-09-20 14:15 METAR KPTB 201815Z AUTO 31004KT 10SM CLR 29/16 A2996 RMK AO2 T02930162 =
2017-09-20 13:55 METAR KPTB 201755Z AUTO 32006KT 10SM CLR 29/17 A2997 RMK AO2 T02940166 10294
                 20187 =
2017-09-20 13:35 METAR KPTB 201735Z AUTO 35007KT 10SM CLR 29/16 A2998 RMK AO2 T02930160 =
2017-09-20 13:15 METAR KPTB 201715Z AUTO 30006KT 10SM CLR 29/17 A2998 RMK AO2 T02910166 =
2017-09-20 12:55 METAR KPTB 201655Z AUTO 26006KT 10SM CLR 29/17 A2998 RMK AO2 T02850165 =
2017-09-20 12:35 METAR KPTB 201635Z AUTO 33005KT 10SM CLR 28/16 A2999 RMK AO2 T02830162 =
2017-09-20 12:15 METAR KPTB 201615Z AUTO 30005KT 10SM CLR 28/16 A2999 RMK AO2 T02790158 =
2017-09-20 11:55 METAR KPTB 201555Z AUTO 32005KT 10SM CLR 28/17 A3000 RMK AO2 T02760174 =
2017-09-20 11:35 METAR KPTB 201535Z AUTO 35005KT 10SM CLR 27/17 A3000 RMK AO2 T02720173 =
2017-09-20 11:15 METAR KPTB 201515Z AUTO 30005KT 10SM CLR 26/17 A3000 RMK AO2 T02640169 =
2017-09-20 10:55 METAR KPTB 201455Z AUTO 29004KT 10SM CLR 26/17 A3000 RMK AO2 T02580174 =
2017-09-20 10:35 METAR KPTB 201435Z AUTO 35004KT 10SM CLR 25/17 A3001 RMK AO2 T02520174 =
2017-09-20 10:15 METAR KPTB 201415Z AUTO 32005KT 10SM CLR 25/18 A3001 RMK AO2 T02460175 =
2017-09-20 09:55 METAR KPTB 201355Z AUTO 31004KT 10SM CLR 24/18 A3001 RMK AO2 T02380175 =
2017-09-20 09:35 METAR KPTB 201335Z AUTO 32004KT 10SM CLR 23/18 A3001 RMK AO2 T02290175 =
2017-09-20 09:15 METAR KPTB 201315Z AUTO 32004KT 10SM CLR 22/18 A3000 RMK AO2 T02190175 =
2017-09-20 08:55 METAR KPTB 201255Z AUTO 00000KT 10SM CLR 21/18 A3000 RMK AO2 T02130176 =
2017-09-20 08:35 METAR KPTB 201235Z AUTO 31003KT 10SM CLR 20/18 A2999 RMK AO2 T02040175 =
2017-09-20 08:15 METAR KPTB 201215Z AUTO 29004KT 10SM CLR 19/17 A2999 RMK AO2 T01940171 =
2017-09-20 07:55 METAR KPTB 201155Z AUTO 31003KT 10SM CLR 19/18 A2998 RMK AO2 T01860175 10195
                 20160 =
2017-09-20 07:35 METAR KPTB 201135Z AUTO 00000KT 10SM CLR 17/17 A2998 RMK AO2 T01650165 =
2017-09-20 07:15 METAR KPTB 201115Z AUTO 00000KT 10SM CLR 16/16 A2997 RMK AO2 T01620162 =
2017-09-20 06:55 METAR KPTB 201055Z AUTO 00000KT 10SM CLR 17/17 A2997 RMK AO2 T01730173 =
2017-09-20 06:35 METAR KPTB 201035Z AUTO 30004KT 10SM CLR 18/18 A2995 RMK AO2 T01770177 =
2017-09-20 06:15 METAR KPTB 201015Z AUTO 30003KT 10SM CLR 18/18 A2995 RMK AO2 T01750175 =
2017-09-20 05:55 METAR KPTB 200955Z AUTO 00000KT 10SM CLR 17/17 A2995 RMK AO2 T01740174 =
2017-09-20 05:35 METAR KPTB 200935Z AUTO 30003KT 10SM CLR 18/18 A2994 RMK AO2 T01760176 =
2017-09-20 05:15 METAR KPTB 200915Z AUTO 00000KT 10SM CLR 17/17 A2994 RMK AO2 T01670167 =
2017-09-20 04:55 METAR KPTB 200855Z AUTO 00000KT 10SM CLR 17/17 A2994 RMK AO2 T01720170 =
2017-09-20 04:35 METAR KPTB 200835Z AUTO 31003KT 10SM CLR 18/17 A2994 RMK AO2 T01840170 =
2017-09-20 04:15 METAR KPTB 200815Z AUTO 31003KT 10SM CLR 19/17 A2994 RMK AO2 T01850167 =
2017-09-20 03:55 METAR KPTB 200755Z AUTO 28003KT 10SM CLR 19/17 A2994 RMK AO2 T01860167 =
2017-09-20 03:35 METAR KPTB 200735Z AUTO 31003KT 10SM CLR 19/17 A2993 RMK AO2 T01900168 =
2017-09-20 03:15 METAR KPTB 200715Z AUTO 30003KT 10SM CLR 19/17 A2994 RMK AO2 T01900169 =
2017-09-20 02:55 METAR KPTB 200655Z AUTO 30003KT 10SM CLR 19/17 A2994 RMK AO2 T01900170 =
2017-09-20 02:35 METAR KPTB 200635Z AUTO 31003KT 10SM CLR 19/17 A2994 RMK AO2 T01900172 =
2017-09-20 02:15 METAR KPTB 200615Z AUTO 30004KT 10SM CLR 19/17 A2994 RMK AO2 T01920172 =
2017-09-20 01:55 METAR KPTB 200555Z AUTO 31003KT 10SM CLR 20/17 A2994 RMK AO2 T01950172 10212
                 20174 =
2017-09-20 01:35 METAR KPTB 200535Z AUTO 30003KT 10SM CLR 20/17 A2994 RMK AO2 T01960174 =
2017-09-20 01:15 METAR KPTB 200515Z AUTO 30004KT 10SM CLR 20/18 A2993 RMK AO2 T01960175 =
2017-09-20 00:55 METAR KPTB 200455Z AUTO 30003KT 10SM CLR 20/18 A2993 RMK AO2 T01970175 402790174
                 =
2017-09-20 00:35 METAR KPTB 200435Z AUTO 30004KT 10SM CLR 20/18 A2993 RMK AO2 T02000175 =
2017-09-20 00:15 METAR KPTB 200415Z AUTO 29003KT 10SM CLR 20/17 A2994 RMK AO2 T01950172 =
2017-09-19 23:55 METAR KPTB 200355Z AUTO 00000KT 10SM CLR 19/18 A2994 RMK AO2 T01850182 =
2017-09-19 23:35 METAR KPTB 200335Z AUTO 00000KT 10SM CLR 20/17 A2994 RMK AO2 T01950167 =
2017-09-19 23:15 METAR KPTB 200315Z AUTO 29003KT 10SM CLR 20/18 A2994 RMK AO2 T02040175 =
2017-09-19 22:55 METAR KPTB 200255Z AUTO 30003KT 10SM CLR 18/18 A2993 RMK AO2 T01780178 =
2017-09-19 22:35 METAR KPTB 200235Z AUTO 00000KT 10SM CLR 18/18 A2993 RMK AO2 T01810181 =
2017-09-19 22:15 METAR KPTB 200215Z AUTO 00000KT 10SM CLR 20/17 A2993 RMK AO2 T02040174 =
2017-09-19 21:55 METAR KPTB 200155Z AUTO 30003KT 10SM CLR 21/18 A2993 RMK AO2 T02060175 =
2017-09-19 21:35 METAR KPTB 200135Z AUTO 00000KT 10SM CLR 19/19 A2993 RMK AO2 T01850185 =

Support USWX by starting your Amazon purchase here.